Time;durP1;ratioP1;P1;durP2;ratioP2;P2;SDS_P1;SDS_P2;PMS_P1;PMS_P2;Temp;Humidity;BMP_temperature;BMP_pressure;BME280_temperature;BME280_humidity;BME280_pressure;Samples;Min_cycle;Max_cycle;Signal;HPM_P1;HPM_P2
2023/02/27 00:02:13;;;;;;;6.40;3.60;;;;;;;-128.00;-1.00;-1.00;102754;1256;1010394;-49
2023/02/27 00:04:42;;;;;;;4.50;3.80;;;;;;;-128.00;-1.00;-1.00;102848;1254;1010957;-49
2023/02/27 00:07:10;;;;;;;5.20;3.70;;;;;;;-128.00;-1.00;-1.00;102947;1257;1013247;-48
2023/02/27 00:09:48;;;;;;;7.40;3.50;;;;;;;-128.00;-1.00;-1.00;102775;1257;1012717;-51
2023/02/27 00:12:18;;;;;;;4.70;3.80;;;;;;;-128.00;-1.00;-1.00;102865;1256;1013288;-50
2023/02/27 00:14:46;;;;;;;6.40;4.00;;;;;;;-128.00;-1.00;-1.00;102992;1256;1002841;-52
2023/02/27 00:17:17;;;;;;;5.80;3.80;;;;;;;-128.00;-1.00;-1.00;102982;1257;1011154;-50
2023/02/27 00:19:51;;;;;;;5.40;4.00;;;;;;;-128.00;-1.00;-1.00;102708;1257;1014495;-53
2023/02/27 00:22:19;;;;;;;5.70;3.40;;;;;;;-128.00;-1.00;-1.00;105066;1254;1002759;-49
2023/02/27 00:24:47;;;;;;;3.70;3.40;;;;;;;-128.00;-1.00;-1.00;102833;1257;1004944;-51
2023/02/27 00:27:14;;;;;;;3.70;2.90;;;;;;;-128.00;-1.00;-1.00;102724;1254;1003731;-48
2023/02/27 00:29:44;;;;;;;5.00;3.30;;;;;;;-128.00;-1.00;-1.00;102816;1257;1011443;-50
2023/02/27 00:32:15;;;;;;;5.80;4.80;;;;;;;-128.00;-1.00;-1.00;103083;1257;1013203;-52
2023/02/27 00:34:44;;;;;;;6.20;3.40;;;;;;;-128.00;-1.00;-1.00;103771;1254;1012885;-51
2023/02/27 00:37:12;;;;;;;3.40;2.50;;;;;;;-128.00;-1.00;-1.00;103924;1257;1002644;-50
2023/02/27 00:39:40;;;;;;;2.30;2.10;;;;;;;-128.00;-1.00;-1.00;102770;1257;1010436;-52
2023/02/27 00:42:08;;;;;;;5.70;3.40;;;;;;;-128.00;-1.00;-1.00;105420;1254;1010951;-53
2023/02/27 00:44:37;;;;;;;2.20;1.90;;;;;;;-128.00;-1.00;-1.00;103837;1257;1013920;-52
2023/02/27 00:47:07;;;;;;;2.50;1.50;;;;;;;-128.00;-1.00;-1.00;105380;1257;1012370;-53
2023/02/27 00:49:36;;;;;;;3.40;2.00;;;;;;;-128.00;-1.00;-1.00;102749;1258;1012518;-50
2023/02/27 00:52:05;;;;;;;4.40;1.70;;;;;;;-128.00;-1.00;-1.00;102533;1257;1010439;-50
2023/02/27 00:54:33;;;;;;;3.30;1.60;;;;;;;-128.00;-1.00;-1.00;102764;1257;1010946;-51
2023/02/27 00:57:01;;;;;;;6.70;2.30;;;;;;;-128.00;-1.00;-1.00;102630;1254;1015283;-52
2023/02/27 00:59:29;;;;;;;22.40;10.80;;;;;;;-128.00;-1.00;-1.00;102799;1253;1002644;-52
2023/02/27 01:01:57;;;;;;;4.20;2.70;;;;;;;-128.00;-1.00;-1.00;102855;1260;1002449;-51
2023/02/27 01:04:31;;;;;;;3.20;2.20;;;;;;;-128.00;-1.00;-1.00;106431;1254;1010337;-53
2023/02/27 01:06:59;;;;;;;3.50;2.00;;;;;;;-128.00;-1.00;-1.00;103130;1254;1003815;-51
2023/02/27 01:09:27;;;;;;;7.30;2.50;;;;;;;-128.00;-1.00;-1.00;102503;1260;1003809;-52
2023/02/27 01:14:23;;;;;;;9.30;4.90;;;;;;;;;;102245;1294;599735;-49
2023/02/27 01:16:51;;;;;;;14.70;8.70;;;;;;;;;;104648;1264;58958;-51
2023/02/27 01:19:19;;;;;;;5.90;4.10;;;;;;;;;;106651;1268;58890;-51
2023/02/27 01:21:47;;;;;;;5.70;4.10;;;;;;;;;;105226;1263;60619;-53
2023/02/27 01:24:18;;;;;;;2.90;2.10;;;;;;;;;;106837;1262;58882;-50
2023/02/27 01:26:48;;;;;;;4.40;2.10;;;;;;;;;;106247;1260;60728;-50
2023/02/27 01:29:16;;;;;;;2.70;2.00;;;;;;;;;;105037;1257;195520;-51
2023/02/27 01:31:44;;;;;;;3.30;1.80;;;;;;;;;;105147;1259;59044;-50
2023/02/27 01:34:12;;;;;;;4.40;2.80;;;;;;;;;;105204;1260;60363;-52
2023/02/27 01:36:41;;;;;;;3.60;2.70;;;;;;;;;;105767;1263;59013;-53
2023/02/27 01:39:09;;;;;;;1.90;1.40;;;;;;;;;;106797;1259;60680;-51
2023/02/27 01:41:37;;;;;;;1.60;1.20;;;;;;;;;;105143;1257;59650;-52
2023/02/27 01:44:06;;;;;;;2.50;1.60;;;;;;;;;;105324;1255;60288;-51
2023/02/27 01:46:36;;;;;;;2.50;1.50;;;;;;;;;;105496;1259;61177;-51
2023/02/27 01:49:06;;;;;;;2.20;1.40;;;;;;;;;;105039;1255;59798;-51
2023/02/27 01:51:36;;;;;;;2.50;1.40;;;;;;;;;;105196;1259;60754;-50
2023/02/27 01:54:05;;;;;;;2.30;1.60;;;;;;;;;;105137;1257;59641;-50
2023/02/27 01:56:33;;;;;;;3.60;1.90;;;;;;;;;;105079;1261;59620;-51
2023/02/27 01:59:02;;;;;;;3.70;1.20;;;;;;;;;;105278;1262;61349;-50
2023/02/27 02:01:31;;;;;;;2.00;1.20;;;;;;;;;;104954;1256;59760;-49
2023/02/27 02:04:26;;;;;;;2.00;1.20;;;;;;;;;;105117;1260;59793;-51
2023/02/27 02:06:59;;;;;;;2.20;2.00;;;;;;;;;;105996;1260;60048;-51
2023/02/27 02:09:27;;;;;;;2.00;1.70;;;;;;;;;;105156;1261;59605;-53
2023/02/27 02:11:56;;;;;;;2.00;1.80;;;;;;;;;;106482;1258;61274;-51
2023/02/27 02:14:27;;;;;;;2.60;1.90;;;;;;;;;;106531;1260;59566;-52
2023/02/27 02:17:25;;;;;;;2.10;1.60;;;;;;;;;;105346;1260;60735;-52
2023/02/27 02:20:06;;;;;;;3.20;2.10;;;;;;;;;;104813;1254;59708;-50
2023/02/27 02:22:44;;;;;;;4.40;2.20;;;;;;;;;;104980;1261;59619;-51
2023/02/27 02:25:17;;;;;;;2.20;1.50;;;;;;;;;;105199;1257;61189;-51
2023/02/27 02:28:07;;;;;;;2.30;1.70;;;;;;;;;;108089;1260;59661;-48
2023/02/27 02:30:44;;;;;;;3.40;1.80;;;;;;;;;;105072;1260;60322;-49
2023/02/27 02:33:16;;;;;;;3.00;2.10;;;;;;;;;;105135;1259;60433;-50
2023/02/27 02:36:02;;;;;;;3.30;2.50;;;;;;;;;;105116;1259;59727;-50
2023/02/27 02:38:49;;;;;;;4.00;2.60;;;;;;;;;;105265;1258;61629;-50
2023/02/27 02:41:29;;;;;;;4.10;2.20;;;;;;;;;;105276;1259;59537;-49
2023/02/27 02:44:04;;;;;;;6.10;3.20;;;;;;;;;;105089;1259;59774;-50
2023/02/27 02:46:51;;;;;;;5.40;3.40;;;;;;;;;;105202;1260;59890;-49
2023/02/27 02:49:23;;;;;;;7.00;4.10;;;;;;;;;;105083;1258;59653;-48
2023/02/27 02:51:51;;;;;;;4.50;2.50;;;;;;;;;;105178;1260;61361;-50
2023/02/27 02:54:23;;;;;;;5.30;2.90;;;;;;;;;;108417;1258;59730;-49
2023/02/27 02:56:51;;;;;;;4.30;2.30;;;;;;;;;;104941;1260;60781;-48
2023/02/27 02:59:31;;;;;;;3.10;2.10;;;;;;;;;;105915;1260;59738;-50
2023/02/27 03:02:06;;;;;;;2.80;1.80;;;;;;;;;;104934;1260;60674;-49
2023/02/27 03:04:44;;;;;;;3.00;2.20;;;;;;;;;;105141;1257;61336;-47
2023/02/27 03:07:31;;;;;;;3.60;2.80;;;;;;;;;;105342;1259;59537;-45
2023/02/27 03:10:04;;;;;;;4.60;3.10;;;;;;;;;;105084;1261;60603;-48
2023/02/27 03:12:32;;;;;;;6.70;3.50;;;;;;;;;;105012;1260;59731;-46
2023/02/27 03:15:02;;;;;;;3.90;2.40;;;;;;;;;;105111;1260;59744;-47
2023/02/27 03:17:37;;;;;;;3.40;2.50;;;;;;;;;;105313;1260;61629;-47
2023/02/27 03:20:07;;;;;;;5.00;3.40;;;;;;;;;;104874;1261;59933;-49
2023/02/27 03:22:36;;;;;;;3.80;2.10;;;;;;;;;;107996;1260;59767;-49
2023/02/27 03:25:05;;;;;;;3.00;2.40;;;;;;;;;;104950;1257;59692;-47
2023/02/27 03:27:36;;;;;;;6.50;4.30;;;;;;;;;;105236;1258;59851;-46
2023/02/27 03:30:09;;;;;;;6.50;4.00;;;;;;;;;;105084;1260;61091;-45
2023/02/27 03:32:41;;;;;;;7.80;5.80;;;;;;;;;;104884;1257;59696;-47
2023/02/27 03:35:11;;;;;;;8.00;5.70;;;;;;;;;;105280;1258;60841;-46
2023/02/27 03:37:39;;;;;;;8.20;4.70;;;;;;;;;;105682;1257;59759;-47
2023/02/27 03:40:23;;;;;;;14.80;7.40;;;;;;;;;;105043;1256;59590;-48
2023/02/27 03:43:02;;;;;;;14.90;6.70;;;;;;;;;;104959;1256;61144;-45
2023/02/27 03:45:42;;;;;;;9.60;5.30;;;;;;;;;;105041;1257;59538;-47
2023/02/27 03:48:09;;;;;;;6.30;3.20;;;;;;;;;;105314;1258;60872;-46
2023/02/27 03:50:39;;;;;;;3.50;2.60;;;;;;;;;;106909;1260;59608;-45
2023/02/27 03:53:10;;;;;;;5.90;3.40;;;;;;;;;;105099;1256;59546;-47
2023/02/27 03:55:40;;;;;;;12.80;7.20;;;;;;;;;;105165;1255;63108;-47
2023/02/27 03:58:07;;;;;;;10.80;6.90;;;;;;;;;;108996;1257;57882;-47
2023/02/27 04:00:55;;;;;;;10.80;6.20;;;;;;;;;;106280;1260;61102;-47
2023/02/27 04:03:24;;;;;;;11.50;6.60;;;;;;;;;;105094;1259;59511;-48
2023/02/27 04:05:52;;;;;;;6.60;4.40;;;;;;;;;;104947;1257;59683;-47
2023/02/27 04:08:46;;;;;;;7.60;5.10;;;;;;;;;;105020;1257;61439;-45
2023/02/27 04:11:37;;;;;;;5.80;4.00;;;;;;;;;;105140;1268;60424;-46
2023/02/27 04:14:22;;;;;;;5.10;4.00;;;;;;;;;;104826;1256;60951;-46
2023/02/27 04:17:08;;;;;;;5.30;3.40;;;;;;;;;;105062;1256;59726;-47
2023/02/27 04:19:55;;;;;;;6.10;3.30;;;;;;;;;;104992;1259;59727;-47
2023/02/27 04:22:23;;;;;;;6.70;3.90;;;;;;;;;;105034;1258;61338;-45
2023/02/27 04:24:51;;;;;;;6.20;3.00;;;;;;;;;;105035;1260;59535;-48
2023/02/27 04:27:22;;;;;;;6.80;4.20;;;;;;;;;;104962;1259;60708;-47
2023/02/27 04:29:53;;;;;;;4.60;3.20;;;;;;;;;;105186;1259;59718;-47
2023/02/27 04:32:24;;;;;;;6.50;3.80;;;;;;;;;;105170;1260;59598;-45
2023/02/27 04:34:54;;;;;;;3.90;2.40;;;;;;;;;;109098;1255;61586;-45
2023/02/27 04:37:30;;;;;;;4.50;3.30;;;;;;;;;;108366;1256;59585;-49
2023/02/27 04:40:04;;;;;;;4.90;4.30;;;;;;;;;;105140;1257;59680;-47
2023/02/27 04:42:33;;;;;;;4.90;3.20;;;;;;;;;;104936;1260;59715;-49
2023/02/27 04:45:03;;;;;;;5.50;2.90;;;;;;;;;;105009;1257;60060;-48
2023/02/27 04:47:33;;;;;;;4.10;2.60;;;;;;;;;;105247;1260;61306;-49
2023/02/27 04:50:04;;;;;;;4.70;2.30;;;;;;;;;;105185;1257;59812;-45
2023/02/27 04:52:34;;;;;;;2.80;2.00;;;;;;;;;;105214;1256;60499;-47
2023/02/27 04:55:21;;;;;;;3.70;2.90;;;;;;;;;;106140;1259;59636;-45
2023/02/27 04:58:09;;;;;;;4.00;3.00;;;;;;;;;;105027;1259;59608;-45
2023/02/27 05:00:38;;;;;;;4.20;3.30;;;;;;;;;;105090;1258;61389;-47
2023/02/27 05:03:08;;;;;;;6.50;4.20;;;;;;;;;;108606;1255;57996;-47
2023/02/27 05:05:36;;;;;;;15.60;9.20;;;;;;;;;;107599;1257;60729;-45
2023/02/27 05:08:09;;;;;;;13.40;8.20;;;;;;;;;;105010;1258;59695;-46
2023/02/27 05:10:48;;;;;;;5.80;3.80;;;;;;;;;;105282;1256;59752;-46
2023/02/27 05:13:26;;;;;;;21.30;8.10;;;;;;;;;;105139;1256;61139;-45
2023/02/27 05:15:59;;;;;;;32.80;10.70;;;;;;;;;;105209;1260;59629;-43
2023/02/27 05:18:27;;;;;;;39.00;12.90;;;;;;;;;;104981;1261;60796;-46
2023/02/27 05:21:05;;;;;;;16.40;6.60;;;;;;;;;;104922;1260;59631;-45
2023/02/27 05:23:54;;;;;;;28.60;10.60;;;;;;;;;;105060;1254;59597;-46
2023/02/27 05:26:26;;;;;;;17.70;7.50;;;;;;;;;;104915;1256;61178;-47
2023/02/27 05:29:09;;;;;;;19.90;8.30;;;;;;;;;;105037;1260;59717;-46
2023/02/27 05:31:42;;;;;;;13.80;6.70;;;;;;;;;;105104;1258;60529;-46
2023/02/27 05:34:12;;;;;;;9.00;5.30;;;;;;;;;;105118;1259;60538;-44
2023/02/27 05:36:48;;;;;;;13.40;5.30;;;;;;;;;;106750;1260;60530;-46
2023/02/27 05:39:16;;;;;;;9.60;4.50;;;;;;;;;;105002;1258;62263;-48
2023/02/27 05:41:49;;;;;;;4.80;3.10;;;;;;;;;;105034;1258;60686;-47
2023/02/27 05:44:18;;;;;;;10.90;5.50;;;;;;;;;;104993;1256;60937;-46
2023/02/27 05:46:53;;;;;;;9.50;5.50;;;;;;;;;;105109;1259;60540;-46
2023/02/27 05:49:20;;;;;;;;;;;;;;;;;;106624;1259;59659;-46
2023/02/27 05:51:49;;;;;;;7.10;3.50;;;;;;;;;;105221;1254;62260;-47
2023/02/27 05:54:20;;;;;;;7.80;5.10;;;;;;;;;;105291;1259;60991;-47
2023/02/27 05:56:48;;;;;;;5.50;3.40;;;;;;;;;;105076;1259;60589;-50
2023/02/27 05:59:20;;;;;;;4.80;3.30;;;;;;;;;;105092;1256;60432;-48
2023/02/27 06:01:49;;;;;;;6.20;3.50;;;;;;;;;;105263;1259;60403;-47
2023/02/27 06:04:18;;;;;;;6.60;3.40;;;;;;;;;;106422;1256;62124;-46
2023/02/27 06:06:46;;;;;;;6.70;3.00;;;;;;;;;;104855;1256;60570;-49
2023/02/27 06:09:15;;;;;;;6.10;3.70;;;;;;;;;;104933;1256;61047;-47
2023/02/27 06:11:43;;;;;;;6.40;3.50;;;;;;;;;;105207;1261;60559;-50
2023/02/27 06:14:12;;;;;;;5.00;4.10;;;;;;;;;;105073;1259;60438;-48
2023/02/27 06:16:40;;;;;;;4.20;3.00;;;;;;;;;;105038;1257;62357;-46
2023/02/27 06:19:09;;;;;;;13.90;7.10;;;;;;;;;;105266;1259;60435;-48
2023/02/27 06:21:37;;;;;;;8.20;4.70;;;;;;;;;;105319;1256;60650;-48
2023/02/27 06:24:06;;;;;;;11.80;6.40;;;;;;;;;;104863;1261;61303;-48
2023/02/27 06:26:35;;;;;;;5.00;3.60;;;;;;;;;;108813;1255;58144;-48
2023/02/27 06:29:07;;;;;;;4.20;2.50;;;;;;;;;;105076;1256;61995;-46
2023/02/27 06:31:35;;;;;;;4.10;2.60;;;;;;;;;;105098;1257;60520;-46
2023/02/27 06:34:03;;;;;;;7.30;3.90;;;;;;;;;;105220;1260;60557;-48
2023/02/27 06:36:31;;;;;;;7.10;3.90;;;;;;;;;;105414;1257;60448;-47
2023/02/27 06:38:59;;;;;;;6.90;4.10;;;;;;;;;;105800;1257;60508;-50
2023/02/27 06:41:27;;;;;;;9.10;5.40;;;;;;;;;;104840;1256;62566;-46
2023/02/27 06:43:56;;;;;;;7.10;5.00;;;;;;;;;;104960;1258;60448;-48
2023/02/27 06:46:24;;;;;;;8.20;6.00;;;;;;;;;;105214;1257;62356;-46
2023/02/27 06:48:53;;;;;;;7.30;4.70;;;;;;;;;;105131;1259;60394;-47
2023/02/27 06:51:22;;;;;;;8.40;5.20;;;;;;;;;;105127;1256;60449;-47
2023/02/27 06:53:50;;;;;;;8.70;4.90;;;;;;;;;;105934;1254;61731;-48
2023/02/27 06:56:18;;;;;;;8.80;5.20;;;;;;;;;;105280;1258;61749;-46
2023/02/27 06:58:47;;;;;;;6.40;4.00;;;;;;;;;;106704;1260;61021;-48
2023/02/27 07:01:15;;;;;;;8.70;5.60;;;;;;;;;;105075;1257;60523;-47
2023/02/27 07:03:42;;;;;;;5.80;4.00;;;;;;;;;;104920;1260;61284;-50
2023/02/27 07:06:10;;;;;;;6.60;4.70;;;;;;;;;;104831;1258;62178;-46
2023/02/27 07:08:38;;;;;;;7.20;4.70;;;;;;;;;;104969;1254;60433;-45
2023/02/27 07:11:26;;;;;;;9.00;5.60;;;;;;;;;;104904;1257;60779;-47
2023/02/27 07:13:59;;;;;;;7.90;5.10;;;;;;;;;;104836;1256;60556;-49
2023/02/27 07:16:27;;;;;;;7.90;4.70;;;;;;;;;;104963;1255;60420;-48
2023/02/27 07:18:56;;;;;;;8.70;4.40;;;;;;;;;;107888;1258;61268;-50
2023/02/27 07:21:24;;;;;;;5.50;3.10;;;;;;;;;;107993;1259;58696;-49
2023/02/27 07:23:52;;;;;;;6.30;2.70;;;;;;;;;;105234;1256;61001;-47
2023/02/27 07:26:20;;;;;;;5.20;3.50;;;;;;;;;;105113;1256;60348;-50
2023/02/27 07:28:48;;;;;;;6.00;4.20;;;;;;;;;;104809;1256;61178;-52
2023/02/27 07:31:16;;;;;;;5.70;3.40;;;;;;;;;;105002;1256;62311;-48
2023/02/27 07:33:45;;;;;;;7.80;4.80;;;;;;;;;;105873;1256;58833;-49
2023/02/27 07:36:13;;;;;;;7.40;4.70;;;;;;;;;;107718;1256;60851;-49
2023/02/27 07:38:41;;;;;;;10.20;5.30;;;;;;;;;;104590;1255;60532;-49
2023/02/27 07:41:09;;;;;;;11.60;7.20;;;;;;;;;;104701;1257;60455;-48
2023/02/27 07:44:00;;;;;;;10.00;6.20;;;;;;;;;;104765;1257;62076;-48
2023/02/27 07:46:28;;;;;;;12.40;4.30;;;;;;;;;;106170;1256;60332;-49
2023/02/27 07:48:57;;;;;;;10.00;4.70;;;;;;;;;;107107;1255;60913;-48
2023/02/27 07:51:25;;;;;;;12.30;5.70;;;;;;;;;;104647;1255;60262;-49
2023/02/27 07:53:57;;;;;;;10.50;5.20;;;;;;;;;;104938;1257;60427;-50
2023/02/27 07:56:29;;;;;;;10.10;5.60;;;;;;;;;;104933;1256;60927;-47
2023/02/27 07:58:58;;;;;;;6.10;4.30;;;;;;;;;;105225;1259;62352;-47
2023/02/27 08:01:26;;;;;;;10.90;6.70;;;;;;;;;;104762;1259;60464;-50
2023/02/27 08:03:54;;;;;;;10.60;5.80;;;;;;;;;;105035;1256;60506;-50
2023/02/27 08:06:22;;;;;;;10.50;5.60;;;;;;;;;;105449;1256;60521;-47
2023/02/27 08:08:50;;;;;;;12.00;6.10;;;;;;;;;;105040;1256;62212;-50
2023/02/27 08:11:18;;;;;;;11.50;5.80;;;;;;;;;;104795;1255;60541;-47
2023/02/27 08:13:46;;;;;;;11.50;5.90;;;;;;;;;;108945;1255;60758;-48
2023/02/27 08:16:29;;;;;;;6.30;3.80;;;;;;;;;;105805;1256;60499;-50
2023/02/27 08:18:59;;;;;;;7.10;4.50;;;;;;;;;;104810;1259;60268;-48
2023/02/27 08:21:27;;;;;;;10.60;6.00;;;;;;;;;;104852;1255;63283;-47
2023/02/27 08:23:55;;;;;;;13.00;6.80;;;;;;;;;;108913;1257;58519;-48
2023/02/27 08:26:23;;;;;;;8.90;6.10;;;;;;;;;;105279;1256;60537;-48
2023/02/27 08:28:52;;;;;;;8.70;6.50;;;;;;;;;;105164;1256;60540;-47
2023/02/27 08:31:19;;;;;;;11.20;6.50;;;;;;;;;;104941;1258;60348;-46
2023/02/27 08:33:50;;;;;;;10.90;7.00;;;;;;;;;;105300;1260;62267;-50
2023/02/27 08:36:36;;;;;;;9.30;6.50;;;;;;;;;;105176;1258;60756;-47
2023/02/27 08:39:05;;;;;;;8.10;4.90;;;;;;;;;;105402;1259;60723;-51
2023/02/27 08:41:34;;;;;;;8.20;5.20;;;;;;;;;;108857;1255;58829;-51
2023/02/27 08:44:02;;;;;;;7.40;5.10;;;;;;;;;;105488;1259;60303;-47
2023/02/27 08:46:29;;;;;;;8.00;5.10;;;;;;;;;;105098;1257;60863;-46
2023/02/27 08:48:57;;;;;;;7.20;5.00;;;;;;;;;;104967;1259;60394;-49
2023/02/27 08:51:25;;;;;;;7.30;5.60;;;;;;;;;;107476;1257;60922;-49
2023/02/27 08:53:57;;;;;;;8.70;5.10;;;;;;;;;;105164;1257;60544;-49
2023/02/27 08:56:26;;;;;;;10.80;5.10;;;;;;;;;;105090;1257;60524;-49
2023/02/27 08:58:54;;;;;;;4.50;3.20;;;;;;;;;;107856;1256;61155;-47
2023/02/27 09:01:25;;;;;;;4.80;4.00;;;;;;;;;;105335;1259;60406;-45
2023/02/27 09:03:54;;;;;;;5.50;3.20;;;;;;;;;;105694;1256;60461;-47
2023/02/27 09:06:26;;;;;;;6.70;3.30;;;;;;;;;;105246;1256;60503;-48
2023/02/27 09:08:56;;;;;;;4.10;3.10;;;;;;;;;;106572;1255;60406;-45
2023/02/27 09:11:23;;;;;;;6.50;4.00;;;;;;;;;;105017;1256;62440;-49
2023/02/27 09:13:52;;;;;;;6.00;3.70;;;;;;;;;;106296;1256;60428;-49
2023/02/27 09:16:23;;;;;;;8.40;4.00;;;;;;;;;;109032;1255;59630;-50
2023/02/27 09:18:54;;;;;;;6.60;4.00;;;;;;;;;;105067;1259;60514;-50
2023/02/27 09:21:23;;;;;;;4.10;3.10;;;;;;;;;;105244;1259;60383;-49
2023/02/27 09:23:51;;;;;;;5.20;3.50;;;;;;;;;;105451;1259;61275;-49
2023/02/27 09:26:19;;;;;;;6.30;3.70;;;;;;;;;;104992;1255;60997;-48
2023/02/27 09:28:53;;;;;;;6.50;3.20;;;;;;;;;;107294;1254;60940;-48
2023/02/27 09:31:21;;;;;;;5.20;2.10;;;;;;;;;;105008;1254;60413;-45
2023/02/27 09:33:49;;;;;;;5.60;2.50;;;;;;;;;;104846;1256;60471;-49
2023/02/27 09:36:17;;;;;;;3.90;2.10;;;;;;;;;;104954;1256;61951;-49
2023/02/27 09:38:45;;;;;;;2.70;2.00;;;;;;;;;;106167;1259;59459;-50
2023/02/27 09:41:34;;;;;;;3.00;1.90;;;;;;;;;;104885;1256;61039;-48
2023/02/27 09:44:03;;;;;;;2.20;2.00;;;;;;;;;;105063;1256;60391;-46
2023/02/27 09:46:34;;;;;;;3.30;2.30;;;;;;;;;;105211;1259;60429;-52
2023/02/27 09:49:03;;;;;;;3.30;2.40;;;;;;;;;;105113;1256;61956;-50
2023/02/27 09:51:31;;;;;;;2.50;1.60;;;;;;;;;;104944;1256;60651;-50
2023/02/27 09:53:59;;;;;;;2.30;1.70;;;;;;;;;;108897;1256;60961;-48
2023/02/27 09:56:47;;;;;;;2.20;1.30;;;;;;;;;;108995;1256;58635;-48
2023/02/27 09:59:18;;;;;;;2.00;1.00;;;;;;;;;;109052;1256;58207;-48
2023/02/27 10:01:49;;;;;;;1.60;1.10;;;;;;;;;;108874;1255;61155;-48
2023/02/27 10:04:23;;;;;;;1.50;1.10;;;;;;;;;;109029;1255;58447;-48
2023/02/27 10:07:07;;;;;;;2.00;1.40;;;;;;;;;;106401;1259;60521;-50
2023/02/27 10:09:54;;;;;;;3.00;1.30;;;;;;;;;;105122;1256;61829;-49
2023/02/27 10:12:29;;;;;;;2.00;1.20;;;;;;;;;;105078;1255;60458;-49
2023/02/27 10:15:13;;;;;;;1.70;1.10;;;;;;;;;;105290;1257;61187;-48
2023/02/27 10:17:42;;;;;;;2.00;1.30;;;;;;;;;;104943;1259;60449;-49
2023/02/27 10:20:15;;;;;;;5.20;1.70;;;;;;;;;;104909;1260;60467;-50
2023/02/27 10:22:44;;;;;;;2.90;1.40;;;;;;;;;;105417;1260;60499;-49
2023/02/27 10:25:14;;;;;;;1.30;0.90;;;;;;;;;;105398;1256;60434;-49
2023/02/27 10:28:00;;;;;;;2.20;1.20;;;;;;;;;;105158;1259;62261;-48
2023/02/27 10:30:28;;;;;;;4.30;2.00;;;;;;;;;;105063;1259;61476;-49
2023/02/27 10:33:22;;;;;;;1.00;0.90;;;;;;;;;;109040;1254;60871;-48
2023/02/27 10:35:52;;;;;;;3.00;1.30;;;;;;;;;;105018;1255;60432;-49
2023/02/27 10:38:28;;;;;;;1.30;1.20;;;;;;;;;;105715;1259;61157;-48
2023/02/27 10:40:56;;;;;;;1.80;1.20;;;;;;;;;;105000;1255;62024;-49
2023/02/27 10:43:24;;;;;;;4.90;2.70;;;;;;;;;;105096;1260;60371;-47
2023/02/27 10:45:53;;;;;;;3.90;2.60;;;;;;;;;;105411;1256;60553;-47
2023/02/27 10:48:22;;;;;;;5.30;2.80;;;;;;;;;;105256;1257;61014;-48
2023/02/27 10:50:50;;;;;;;8.20;4.20;;;;;;;;;;107146;1252;58921;-50
2023/02/27 10:53:26;;;;;;;15.60;6.90;;;;;;;;;;105465;1253;62169;-49
2023/02/27 10:56:01;;;;;;;7.30;3.70;;;;;;;;;;105488;1253;60521;-49
2023/02/27 10:58:31;;;;;;;3.00;1.50;;;;;;;;;;105565;1256;60758;-48
2023/02/27 11:01:08;;;;;;;2.40;1.60;;;;;;;;;;105956;1257;60461;-49
2023/02/27 11:03:36;;;;;;;;;;;;;;;;;;107921;1254;59091;-52
2023/02/27 11:06:28;;;;;;;1.80;1.20;;;;;;;;;;105449;1255;62402;-50
2023/02/27 11:09:32;;;;;;;3.50;1.50;;;;;;;;;;105241;1257;60517;-49
2023/02/27 11:12:25;;;;;;;1.60;1.30;;;;;;;;;;104647;1262;61098;-48
2023/02/27 11:14:55;;;;;;;3.50;1.50;;;;;;;;;;105260;1257;60776;-47
2023/02/27 11:17:31;;;;;;;1.40;0.90;;;;;;;;;;109172;1253;58431;-51
2023/02/27 11:20:01;;;;;;;1.70;1.00;;;;;;;;;;108028;1252;60899;-48
2023/02/27 11:22:29;;;;;;;3.60;2.00;;;;;;;;;;105185;1254;60425;-49
2023/02/27 11:25:22;;;;;;;1.80;1.10;;;;;;;;;;105539;1257;61194;-49
2023/02/27 11:27:51;;;;;;;2.00;1.30;;;;;;;;;;105080;1253;60584;-47
2023/02/27 11:30:26;;;;;;;2.10;1.20;;;;;;;;;;105330;1253;60773;-50
2023/02/27 11:32:55;;;;;;;1.60;1.10;;;;;;;;;;105363;1253;62072;-50
2023/02/27 11:35:24;;;;;;;1.70;0.90;;;;;;;;;;105148;1253;60429;-50
2023/02/27 11:38:17;;;;;;;1.50;1.10;;;;;;;;;;104955;1254;62314;-50
2023/02/27 11:40:50;;;;;;;2.40;1.40;;;;;;;;;;105049;1257;60408;-51
2023/02/27 11:43:19;;;;;;;2.00;1.60;;;;;;;;;;105121;1252;60375;-49
2023/02/27 11:45:50;;;;;;;2.80;1.90;;;;;;;;;;105292;1257;62042;-51
2023/02/27 11:48:45;;;;;;;2.90;2.30;;;;;;;;;;105051;1257;60362;-51
2023/02/27 11:51:16;;;;;;;2.30;1.70;;;;;;;;;;105244;1257;60824;-48
2023/02/27 11:53:54;;;;;;;6.70;3.60;;;;;;;;;;105482;1257;60428;-50
2023/02/27 11:56:24;;;;;;;4.90;1.50;;;;;;;;;;105191;1253;60430;-48
2023/02/27 11:58:57;;;;;;;2.30;1.20;;;;;;;;;;105380;1253;62133;-49
2023/02/27 12:01:27;;;;;;;5.80;1.60;;;;;;;;;;104960;1254;60517;-50
2023/02/27 12:04:03;;;;;;;2.90;1.40;;;;;;;;;;105230;1257;60418;-51
2023/02/27 12:06:35;;;;;;;2.10;1.60;;;;;;;;;;104999;1257;60497;-51
2023/02/27 12:09:10;;;;;;;5.00;1.60;;;;;;;;;;105070;1252;60436;-50
2023/02/27 12:11:43;;;;;;;2.60;2.00;;;;;;;;;;105227;1253;61976;-49
2023/02/27 12:14:15;;;;;;;3.10;2.20;;;;;;;;;;105478;1257;60795;-47
2023/02/27 12:16:52;;;;;;;2.30;1.70;;;;;;;;;;105263;1257;60809;-48
2023/02/27 12:19:21;;;;;;;2.60;1.70;;;;;;;;;;106205;1253;60538;-48
2023/02/27 12:21:54;;;;;;;2.60;1.60;;;;;;;;;;105799;1257;60423;-49
2023/02/27 12:24:23;;;;;;;3.50;1.60;;;;;;;;;;107213;1253;62082;-48
2023/02/27 12:26:55;;;;;;;3.60;2.20;;;;;;;;;;105418;1253;60480;-47
2023/02/27 12:29:32;;;;;;;2.20;1.20;;;;;;;;;;105146;1253;61951;-48
2023/02/27 12:32:08;;;;;;;4.90;1.60;;;;;;;;;;104951;1253;61754;-46
2023/02/27 12:34:45;;;;;;;1.10;0.90;;;;;;;;;;105765;1253;60401;-50
2023/02/27 12:37:16;;;;;;;3.90;0.90;;;;;;;;;;105230;1253;61113;-49
2023/02/27 12:39:46;;;;;;;1.80;0.80;;;;;;;;;;105151;1255;60429;-52
2023/02/27 12:42:33;;;;;;;2.70;1.40;;;;;;;;;;105202;1256;60452;-50
2023/02/27 12:45:01;;;;;;;2.60;1.00;;;;;;;;;;105248;1257;62232;-50
2023/02/27 12:47:47;;;;;;;3.90;1.20;;;;;;;;;;105681;1257;60432;-48
2023/02/27 12:50:15;;;;;;;2.00;1.20;;;;;;;;;;105108;1253;62253;-47
2023/02/27 12:53:02;;;;;;;7.30;1.30;;;;;;;;;;105448;1254;60419;-49
2023/02/27 12:55:32;;;;;;;4.10;1.10;;;;;;;;;;105042;1253;60538;-51
2023/02/27 12:58:14;;;;;;;2.20;1.40;;;;;;;;;;105016;1253;60517;-50
2023/02/27 13:01:01;;;;;;;4.50;1.40;;;;;;;;;;105096;1253;60436;-50
2023/02/27 13:03:33;;;;;;;6.60;2.60;;;;;;;;;;105387;1253;61960;-48
2023/02/27 13:06:05;;;;;;;3.10;1.60;;;;;;;;;;104981;1256;60425;-51
2023/02/27 13:08:53;;;;;;;2.30;1.20;;;;;;;;;;106136;1255;60866;-50
2023/02/27 13:11:24;;;;;;;2.30;1.60;;;;;;;;;;104613;1257;60537;-52
2023/02/27 13:13:59;;;;;;;3.50;1.50;;;;;;;;;;104869;1253;60371;-49
2023/02/27 13:16:40;;;;;;;3.40;1.10;;;;;;;;;;109230;1253;62018;-50
2023/02/27 13:19:13;;;;;;;1.60;0.80;;;;;;;;;;107041;1257;60412;-51
2023/02/27 13:21:46;;;;;;;1.80;1.10;;;;;;;;;;105080;1253;61321;-50
2023/02/27 13:24:20;;;;;;;1.30;0.70;;;;;;;;;;105211;1254;60413;-51
2023/02/27 13:26:54;;;;;;;1.50;0.90;;;;;;;;;;105318;1253;60417;-49
2023/02/27 13:32:03;;;;;;;1.90;1.20;;;;;;;;;;102466;1290;599801;-49
2023/02/27 13:34:33;;;;;;;2.60;1.00;;;;;;;;;;104791;1264;59132;-45
2023/02/27 13:37:02;;;;;;;2.80;1.10;;;;;;;;;;104608;1270;59049;-50
2023/02/27 13:39:44;;;;;;;3.90;1.50;;;;;;;;;;105013;1270;60352;-47
2023/02/27 13:42:24;;;;;;;2.90;1.40;;;;;;;;;;104615;1268;59034;-48
2023/02/27 13:44:55;;;;;;;1.60;1.10;;;;;;;;;;104648;1267;210301;-50
2023/02/27 13:47:29;;;;;;;1.90;1.10;;;;;;;;;;105121;1266;59031;-48
2023/02/27 13:49:58;;;;;;;3.00;1.40;;;;;;;;;;104970;1268;58950;-49
2023/02/27 13:52:29;;;;;;;1.50;1.20;;;;;;;;;;105141;1268;59689;-50
2023/02/27 13:54:59;;;;;;;2.30;1.20;;;;;;;;;;104980;1263;59036;-50
2023/02/27 13:57:38;;;;;;;3.00;1.60;;;;;;;;;;105112;1262;60828;-49
2023/02/27 14:00:15;;;;;;;2.20;1.10;;;;;;;;;;104781;1263;59876;-49
2023/02/27 14:02:59;;;;;;;2.70;1.50;;;;;;;;;;104876;1260;59627;-52
2023/02/27 14:05:32;;;;;;;2.50;1.10;;;;;;;;;;105571;1261;61380;-49
2023/02/27 14:08:06;;;;;;;2.60;1.20;;;;;;;;;;104997;1264;59624;-51
2023/02/27 14:10:36;;;;;;;2.70;1.20;;;;;;;;;;104823;1260;60884;-52
2023/02/27 14:13:05;;;;;;;2.80;1.30;;;;;;;;;;105044;1262;59709;-52
2023/02/27 14:15:34;;;;;;;3.30;1.20;;;;;;;;;;105129;1260;59642;-50
2023/02/27 14:18:02;;;;;;;1.70;1.10;;;;;;;;;;105403;1260;61360;-49
2023/02/27 14:20:48;;;;;;;2.90;1.30;;;;;;;;;;105141;1262;59661;-52
2023/02/27 14:23:21;;;;;;;3.00;1.50;;;;;;;;;;105223;1257;60413;-50
2023/02/27 14:25:53;;;;;;;6.80;1.70;;;;;;;;;;105237;1258;59635;-49
2023/02/27 14:28:21;;;;;;;2.40;1.80;;;;;;;;;;105219;1257;59749;-51
2023/02/27 14:30:54;;;;;;;1.70;1.50;;;;;;;;;;105230;1256;61443;-51
2023/02/27 14:33:27;;;;;;;2.40;1.60;;;;;;;;;;105157;1256;59621;-52
2023/02/27 14:36:08;;;;;;;2.60;1.80;;;;;;;;;;105412;1254;60815;-50
2023/02/27 14:38:38;;;;;;;3.10;1.40;;;;;;;;;;105188;1262;59767;-49
2023/02/27 14:41:12;;;;;;;7.70;3.90;;;;;;;;;;105427;1256;59717;-48
2023/02/27 14:43:40;;;;;;;;;;;;;;;;;;105304;1261;60033;-50
2023/02/27 14:46:29;;;;;;;2.80;1.70;;;;;;;;;;105520;1259;59619;-51